Kennoway, United Kingdom
Current Conditions -  °F | °C
As of 2:50 AM on Wednesday 26 Nov 2014 (Local Time) from EGQL Reporting Station
Moderate Fog Moderate Fog  
Wind Chill: 36°   Ceiling: 15000
Heat Index: 36°   Visibility: 0.34mi
Dew Point: 36°   Wind: 1mph
Humidity: 100%   Direction: 280°W
Pressure: 30.06"   Gusts: NA
Location:  56.21°N, 3.05°W
Report Text: EGQL 260250Z 28001KT 0550 FG BKN150 02/02 Q1018 RED
Loading
Personal Weather Stations






























Interactive Weather Map New forecast layout! Learn more

10-Day Weather Forecast

Advertisements
Track Severe Weather on mobile